sensor_id;sensor_type;location;lat;lon;timestamp;pressure;altitude;pressure_sealevel;temperature;humidity
43814;BME280;29669;55.706;37.656;2023-05-09T00:00:07;101530.31;;;5.18;nan
43814;BME280;29669;55.706;37.656;2023-05-09T00:02:40;101523.44;;;5.18;nan
43814;BME280;29669;55.706;37.656;2023-05-09T00:05:09;101530.06;;;5.22;nan
43814;BME280;29669;55.706;37.656;2023-05-09T00:07:36;101523.44;;;5.18;nan
43814;BME280;29669;55.706;37.656;2023-05-09T00:10:04;101524.66;;;5.11;nan
43814;BME280;29669;55.706;37.656;2023-05-09T00:12:33;101528.81;;;5.14;nan
43814;BME280;29669;55.706;37.656;2023-05-09T00:15:00;101528.06;;;5.12;nan
43814;BME280;29669;55.706;37.656;2023-05-09T00:17:30;101533.31;;;5.10;nan
43814;BME280;29669;55.706;37.656;2023-05-09T00:19:58;101529.91;;;5.10;nan
43814;BME280;29669;55.706;37.656;2023-05-09T00:22:27;101536.53;;;5.14;nan
43814;BME280;29669;55.706;37.656;2023-05-09T00:24:55;101535.66;;;5.15;nan
43814;BME280;29669;55.706;37.656;2023-05-09T00:27:22;101531.72;;;5.08;nan
43814;BME280;29669;55.706;37.656;2023-05-09T00:29:50;101534.63;;;5.02;nan
43814;BME280;29669;55.706;37.656;2023-05-09T00:32:18;101528.44;;;4.90;nan
43814;BME280;29669;55.706;37.656;2023-05-09T00:34:46;101531.50;;;4.81;nan
43814;BME280;29669;55.706;37.656;2023-05-09T00:37:13;101533.19;;;4.82;nan
43814;BME280;29669;55.706;37.656;2023-05-09T00:39:41;101537.66;;;4.78;nan
43814;BME280;29669;55.706;37.656;2023-05-09T00:42:09;101536.66;;;4.81;nan
43814;BME280;29669;55.706;37.656;2023-05-09T00:44:36;101537.47;;;4.82;nan
43814;BME280;29669;55.706;37.656;2023-05-09T00:47:05;101535.00;;;4.80;nan
43814;BME280;29669;55.706;37.656;2023-05-09T00:49:33;101539.22;;;4.81;nan
43814;BME280;29669;55.706;37.656;2023-05-09T00:52:01;101538.81;;;4.89;nan
43814;BME280;29669;55.706;37.656;2023-05-09T00:54:30;101546.47;;;4.90;nan
43814;BME280;29669;55.706;37.656;2023-05-09T00:56:57;101534.16;;;4.95;nan
43814;BME280;29669;55.706;37.656;2023-05-09T00:59:26;101535.00;;;4.96;nan
43814;BME280;29669;55.706;37.656;2023-05-09T01:01:53;101535.34;;;4.90;nan
43814;BME280;29669;55.706;37.656;2023-05-09T01:04:21;101531.25;;;4.86;nan
43814;BME280;29669;55.706;37.656;2023-05-09T01:07:21;101535.00;;;4.80;nan
43814;BME280;29669;55.706;37.656;2023-05-09T01:10:06;101543.78;;;4.76;nan
43814;BME280;29669;55.706;37.656;2023-05-09T01:12:46;101541.53;;;4.70;nan
43814;BME280;29669;55.706;37.656;2023-05-09T01:21:07;101535.31;;;4.58;nan
43814;BME280;29669;55.706;37.656;2023-05-09T01:31:13;101539.06;;;4.68;nan
43814;BME280;29669;55.706;37.656;2023-05-09T01:33:45;101535.50;;;4.71;nan
43814;BME280;29669;55.706;37.656;2023-05-09T01:36:16;101540.47;;;4.74;nan
43814;BME280;29669;55.706;37.656;2023-05-09T01:38:47;101541.78;;;4.81;nan
43814;BME280;29669;55.706;37.656;2023-05-09T01:41:17;101543.28;;;4.85;nan
43814;BME280;29669;55.706;37.656;2023-05-09T01:43:47;101542.22;;;4.89;nan
43814;BME280;29669;55.706;37.656;2023-05-09T01:46:17;101550.91;;;4.87;nan
43814;BME280;29669;55.706;37.656;2023-05-09T01:48:46;101538.06;;;4.87;nan
43814;BME280;29669;55.706;37.656;2023-05-09T01:51:16;101552.03;;;4.83;nan
43814;BME280;29669;55.706;37.656;2023-05-09T01:53:47;101542.63;;;4.82;nan
43814;BME280;29669;55.706;37.656;2023-05-09T01:56:15;101546.78;;;4.84;nan
43814;BME280;29669;55.706;37.656;2023-05-09T01:58:45;101551.59;;;4.90;nan
43814;BME280;29669;55.706;37.656;2023-05-09T02:01:18;101548.19;;;5.05;nan
43814;BME280;29669;55.706;37.656;2023-05-09T02:03:47;101551.00;;;5.16;nan
43814;BME280;29669;55.706;37.656;2023-05-09T02:06:19;101546.75;;;5.15;nan
43814;BME280;29669;55.706;37.656;2023-05-09T02:08:48;101551.75;;;5.18;nan
43814;BME280;29669;55.706;37.656;2023-05-09T02:11:16;101543.09;;;5.19;nan
43814;BME280;29669;55.706;37.656;2023-05-09T02:13:44;101550.38;;;5.27;nan
43814;BME280;29669;55.706;37.656;2023-05-09T02:16:12;101539.75;;;5.33;nan
43814;BME280;29669;55.706;37.656;2023-05-09T02:18:40;101550.72;;;5.36;nan
43814;BME280;29669;55.706;37.656;2023-05-09T02:21:07;101542.16;;;5.36;nan
43814;BME280;29669;55.706;37.656;2023-05-09T02:23:35;101545.75;;;5.33;nan
43814;BME280;29669;55.706;37.656;2023-05-09T02:26:03;101541.41;;;5.34;nan
43814;BME280;29669;55.706;37.656;2023-05-09T02:28:31;101547.38;;;5.34;nan
43814;BME280;29669;55.706;37.656;2023-05-09T02:31:00;101542.78;;;5.39;nan
43814;BME280;29669;55.706;37.656;2023-05-09T02:33:34;101549.44;;;5.43;nan
43814;BME280;29669;55.706;37.656;2023-05-09T02:36:02;101547.44;;;5.48;nan
43814;BME280;29669;55.706;37.656;2023-05-09T02:38:33;101548.34;;;5.47;nan
43814;BME280;29669;55.706;37.656;2023-05-09T02:41:01;101552.25;;;5.54;nan
43814;BME280;29669;55.706;37.656;2023-05-09T02:43:29;101551.31;;;5.55;nan
43814;BME280;29669;55.706;37.656;2023-05-09T02:45:57;101549.25;;;5.62;nan
43814;BME280;29669;55.706;37.656;2023-05-09T02:48:26;101554.66;;;5.71;nan
43814;BME280;29669;55.706;37.656;2023-05-09T02:50:54;101555.25;;;5.77;nan
43814;BME280;29669;55.706;37.656;2023-05-09T02:53:22;101554.91;;;5.83;nan
43814;BME280;29669;55.706;37.656;2023-05-09T02:55:49;101543.53;;;5.87;nan
43814;BME280;29669;55.706;37.656;2023-05-09T02:58:17;101555.03;;;5.95;nan
43814;BME280;29669;55.706;37.656;2023-05-09T03:00:44;101552.25;;;5.98;nan
43814;BME280;29669;55.706;37.656;2023-05-09T03:03:13;101563.97;;;6.04;nan
43814;BME280;29669;55.706;37.656;2023-05-09T03:05:43;101558.44;;;6.10;nan
43814;BME280;29669;55.706;37.656;2023-05-09T03:08:10;101563.25;;;6.16;nan
43814;BME280;29669;55.706;37.656;2023-05-09T03:10:38;101563.88;;;6.19;nan
43814;BME280;29669;55.706;37.656;2023-05-09T03:13:07;101562.69;;;6.25;nan
43814;BME280;29669;55.706;37.656;2023-05-09T03:15:35;101564.16;;;6.29;nan
43814;BME280;29669;55.706;37.656;2023-05-09T03:18:03;101562.88;;;6.36;nan
43814;BME280;29669;55.706;37.656;2023-05-09T03:20:31;101566.75;;;6.43;nan
43814;BME280;29669;55.706;37.656;2023-05-09T03:22:59;101565.38;;;6.51;nan
43814;BME280;29669;55.706;37.656;2023-05-09T03:25:27;101560.84;;;6.55;nan
43814;BME280;29669;55.706;37.656;2023-05-09T03:27:54;101565.47;;;6.64;nan
43814;BME280;29669;55.706;37.656;2023-05-09T03:30:23;101564.91;;;6.73;nan
43814;BME280;29669;55.706;37.656;2023-05-09T03:32:50;101569.69;;;6.79;nan
43814;BME280;29669;55.706;37.656;2023-05-09T03:35:18;101568.38;;;6.86;nan
43814;BME280;29669;55.706;37.656;2023-05-09T03:37:46;101571.09;;;6.97;nan
43814;BME280;29669;55.706;37.656;2023-05-09T03:40:14;101562.97;;;7.03;nan
43814;BME280;29669;55.706;37.656;2023-05-09T03:42:49;101569.31;;;7.12;nan
43814;BME280;29669;55.706;37.656;2023-05-09T03:45:16;101573.81;;;7.22;nan
43814;BME280;29669;55.706;37.656;2023-05-09T03:47:46;101573.22;;;7.31;nan
43814;BME280;29669;55.706;37.656;2023-05-09T03:50:14;101570.97;;;7.39;nan
43814;BME280;29669;55.706;37.656;2023-05-09T03:52:43;101570.47;;;7.47;nan
43814;BME280;29669;55.706;37.656;2023-05-09T03:55:12;101569.97;;;7.54;nan
43814;BME280;29669;55.706;37.656;2023-05-09T03:57:40;101565.34;;;7.59;nan
43814;BME280;29669;55.706;37.656;2023-05-09T04:00:08;101576.00;;;7.68;nan
43814;BME280;29669;55.706;37.656;2023-05-09T04:02:50;101575.50;;;7.75;nan
43814;BME280;29669;55.706;37.656;2023-05-09T04:05:31;101578.31;;;7.85;nan
43814;BME280;29669;55.706;37.656;2023-05-09T04:08:02;101573.53;;;7.91;nan
43814;BME280;29669;55.706;37.656;2023-05-09T04:10:31;101580.59;;;8.02;nan
43814;BME280;29669;55.706;37.656;2023-05-09T04:12:59;101575.84;;;8.08;nan
43814;BME280;29669;55.706;37.656;2023-05-09T04:15:27;101589.81;;;8.18;nan
43814;BME280;29669;55.706;37.656;2023-05-09T04:17:57;101573.81;;;8.26;nan
43814;BME280;29669;55.706;37.656;2023-05-09T04:20:24;101579.41;;;8.32;nan
43814;BME280;29669;55.706;37.656;2023-05-09T04:22:52;101583.84;;;8.43;nan
43814;BME280;29669;55.706;37.656;2023-05-09T04:25:20;101584.75;;;8.54;nan
43814;BME280;29669;55.706;37.656;2023-05-09T04:27:47;101579.97;;;8.61;nan
43814;BME280;29669;55.706;37.656;2023-05-09T04:30:15;101580.16;;;8.71;nan
43814;BME280;29669;55.706;37.656;2023-05-09T04:32:45;101583.06;;;8.79;nan
43814;BME280;29669;55.706;37.656;2023-05-09T04:35:14;101578.06;;;8.88;nan
43814;BME280;29669;55.706;37.656;2023-05-09T04:37:46;101580.09;;;8.96;nan
43814;BME280;29669;55.706;37.656;2023-05-09T04:40:14;101586.28;;;9.06;nan
43814;BME280;29669;55.706;37.656;2023-05-09T04:42:50;101583.88;;;9.15;nan
43814;BME280;29669;55.706;37.656;2023-05-09T04:45:20;101582.25;;;9.25;nan
43814;BME280;29669;55.706;37.656;2023-05-09T04:47:48;101585.03;;;9.35;nan
43814;BME280;29669;55.706;37.656;2023-05-09T04:50:16;101581.88;;;9.42;nan
43814;BME280;29669;55.706;37.656;2023-05-09T04:52:43;101591.81;;;9.48;nan
43814;BME280;29669;55.706;37.656;2023-05-09T04:55:11;101587.84;;;9.56;nan
43814;BME280;29669;55.706;37.656;2023-05-09T04:57:43;101584.78;;;9.62;nan
43814;BME280;29669;55.706;37.656;2023-05-09T05:00:11;101577.50;;;9.67;nan
43814;BME280;29669;55.706;37.656;2023-05-09T05:02:40;101582.94;;;9.75;nan
43814;BME280;29669;55.706;37.656;2023-05-09T05:05:08;101585.78;;;9.83;nan
43814;BME280;29669;55.706;37.656;2023-05-09T05:07:41;101585.47;;;9.87;nan
43814;BME280;29669;55.706;37.656;2023-05-09T05:10:11;101591.97;;;9.93;nan
43814;BME280;29669;55.706;37.656;2023-05-09T05:12:44;101588.19;;;9.97;nan
43814;BME280;29669;55.706;37.656;2023-05-09T05:15:13;101593.88;;;10.02;nan
43814;BME280;29669;55.706;37.656;2023-05-09T05:17:44;101582.44;;;10.04;nan
43814;BME280;29669;55.706;37.656;2023-05-09T05:20:12;101584.50;;;10.12;nan
43814;BME280;29669;55.706;37.656;2023-05-09T05:22:44;101579.66;;;10.18;nan
43814;BME280;29669;55.706;37.656;2023-05-09T05:25:12;101578.13;;;10.27;nan
43814;BME280;29669;55.706;37.656;2023-05-09T05:27:42;101588.16;;;10.31;nan
43814;BME280;29669;55.706;37.656;2023-05-09T05:30:11;101585.34;;;10.34;nan
43814;BME280;29669;55.706;37.656;2023-05-09T05:32:43;101584.88;;;10.40;nan
43814;BME280;29669;55.706;37.656;2023-05-09T05:35:12;101589.69;;;10.45;nan
43814;BME280;29669;55.706;37.656;2023-05-09T05:37:41;101579.91;;;10.49;nan
43814;BME280;29669;55.706;37.656;2023-05-09T05:40:11;101588.06;;;10.55;nan
43814;BME280;29669;55.706;37.656;2023-05-09T05:42:42;101580.97;;;10.57;nan
43814;BME280;29669;55.706;37.656;2023-05-09T05:45:11;101583.31;;;10.60;nan
43814;BME280;29669;55.706;37.656;2023-05-09T05:47:41;101574.22;;;10.66;nan
43814;BME280;29669;55.706;37.656;2023-05-09T05:50:12;101572.91;;;10.71;nan
43814;BME280;29669;55.706;37.656;2023-05-09T05:52:40;101570.94;;;10.75;nan
43814;BME280;29669;55.706;37.656;2023-05-09T05:55:11;101573.88;;;10.81;nan
43814;BME280;29669;55.706;37.656;2023-05-09T05:57:40;101574.44;;;10.85;nan
43814;BME280;29669;55.706;37.656;2023-05-09T06:00:11;101575.97;;;10.87;nan
43814;BME280;29669;55.706;37.656;2023-05-09T06:02:45;101573.97;;;10.91;nan
43814;BME280;29669;55.706;37.656;2023-05-09T06:05:23;101564.84;;;10.96;nan
43814;BME280;29669;55.706;37.656;2023-05-09T06:07:52;101567.22;;;10.99;nan
43814;BME280;29669;55.706;37.656;2023-05-09T06:10:19;101569.94;;;11.09;nan
43814;BME280;29669;55.706;37.656;2023-05-09T06:12:47;101570.38;;;11.14;nan
43814;BME280;29669;55.706;37.656;2023-05-09T06:15:15;101570.69;;;11.20;nan
43814;BME280;29669;55.706;37.656;2023-05-09T06:17:46;101569.63;;;11.23;nan
43814;BME280;29669;55.706;37.656;2023-05-09T06:20:16;101569.41;;;11.26;nan
43814;BME280;29669;55.706;37.656;2023-05-09T06:22:43;101557.09;;;11.28;nan
43814;BME280;29669;55.706;37.656;2023-05-09T06:25:11;101558.25;;;11.35;nan
43814;BME280;29669;55.706;37.656;2023-05-09T06:27:39;101554.34;;;11.41;nan
43814;BME280;29669;55.706;37.656;2023-05-09T06:30:07;101556.31;;;11.48;nan
43814;BME280;29669;55.706;37.656;2023-05-09T06:32:50;101551.31;;;11.56;nan
43814;BME280;29669;55.706;37.656;2023-05-09T06:35:18;101548.09;;;11.64;nan
43814;BME280;29669;55.706;37.656;2023-05-09T06:37:46;101551.44;;;11.75;nan
43814;BME280;29669;55.706;37.656;2023-05-09T06:40:15;101551.09;;;11.80;nan
43814;BME280;29669;55.706;37.656;2023-05-09T06:42:43;101542.72;;;11.76;nan
43814;BME280;29669;55.706;37.656;2023-05-09T06:45:11;101541.81;;;11.66;nan
43814;BME280;29669;55.706;37.656;2023-05-09T06:47:39;101535.03;;;11.75;nan
43814;BME280;29669;55.706;37.656;2023-05-09T06:50:07;101535.09;;;11.84;nan
43814;BME280;29669;55.706;37.656;2023-05-09T06:52:35;101532.00;;;11.90;nan
43814;BME280;29669;55.706;37.656;2023-05-09T06:55:03;101526.81;;;12.00;nan
43814;BME280;29669;55.706;37.656;2023-05-09T06:57:31;101531.97;;;12.11;nan
43814;BME280;29669;55.706;37.656;2023-05-09T06:59:58;101530.34;;;12.19;nan
43814;BME280;29669;55.706;37.656;2023-05-09T07:02:26;101524.75;;;12.24;nan
43814;BME280;29669;55.706;37.656;2023-05-09T07:04:54;101526.84;;;12.30;nan
43814;BME280;29669;55.706;37.656;2023-05-09T07:07:22;101521.53;;;12.41;nan
43814;BME280;29669;55.706;37.656;2023-05-09T07:09:50;101517.47;;;12.58;nan
43814;BME280;29669;55.706;37.656;2023-05-09T07:12:21;101517.91;;;12.72;nan
43814;BME280;29669;55.706;37.656;2023-05-09T07:14:49;101525.19;;;12.78;nan
43814;BME280;29669;55.706;37.656;2023-05-09T07:17:17;101516.84;;;12.84;nan
43814;BME280;29669;55.706;37.656;2023-05-09T07:19:50;101514.66;;;12.99;nan
43814;BME280;29669;55.706;37.656;2023-05-09T07:22:18;101507.16;;;13.05;nan
43814;BME280;29669;55.706;37.656;2023-05-09T07:24:46;101507.97;;;13.06;nan
43814;BME280;29669;55.706;37.656;2023-05-09T07:27:14;101507.84;;;13.27;nan
43814;BME280;29669;55.706;37.656;2023-05-09T07:29:41;101499.88;;;13.57;nan
43814;BME280;29669;55.706;37.656;2023-05-09T07:32:09;101494.44;;;13.87;nan
43814;BME280;29669;55.706;37.656;2023-05-09T07:34:36;101487.88;;;14.10;nan
43814;BME280;29669;55.706;37.656;2023-05-09T07:37:05;101490.69;;;14.36;nan
43814;BME280;29669;55.706;37.656;2023-05-09T07:39:34;101498.75;;;14.69;nan
43814;BME280;29669;55.706;37.656;2023-05-09T07:42:02;101483.22;;;15.03;nan
43814;BME280;29669;55.706;37.656;2023-05-09T07:44:31;101487.38;;;15.31;nan
43814;BME280;29669;55.706;37.656;2023-05-09T07:46:58;101492.13;;;15.45;nan
43814;BME280;29669;55.706;37.656;2023-05-09T07:49:27;101485.28;;;15.52;nan
43814;BME280;29669;55.706;37.656;2023-05-09T07:51:55;101482.31;;;15.73;nan
43814;BME280;29669;55.706;37.656;2023-05-09T07:54:23;101475.53;;;15.88;nan
43814;BME280;29669;55.706;37.656;2023-05-09T07:57:09;101480.53;;;15.99;nan
43814;BME280;29669;55.706;37.656;2023-05-09T07:59:36;101471.44;;;16.19;nan
43814;BME280;29669;55.706;37.656;2023-05-09T08:02:05;101476.25;;;16.40;nan
43814;BME280;29669;55.706;37.656;2023-05-09T08:04:33;101463.59;;;16.19;nan
43814;BME280;29669;55.706;37.656;2023-05-09T08:07:04;101465.88;;;15.88;nan
43814;BME280;29669;55.706;37.656;2023-05-09T08:09:31;101463.81;;;15.66;nan
43814;BME280;29669;55.706;37.656;2023-05-09T08:11:59;101465.59;;;15.66;nan
43814;BME280;29669;55.706;37.656;2023-05-09T08:14:27;101454.81;;;15.69;nan
43814;BME280;29669;55.706;37.656;2023-05-09T08:16:55;101457.63;;;15.75;nan
43814;BME280;29669;55.706;37.656;2023-05-09T08:19:22;101454.56;;;15.80;nan
43814;BME280;29669;55.706;37.656;2023-05-09T08:21:52;101454.91;;;15.85;nan
43814;BME280;29669;55.706;37.656;2023-05-09T08:24:20;101453.13;;;15.93;nan
43814;BME280;29669;55.706;37.656;2023-05-09T08:26:47;101447.91;;;15.93;nan
43814;BME280;29669;55.706;37.656;2023-05-09T08:29:15;101448.59;;;15.70;nan
43814;BME280;29669;55.706;37.656;2023-05-09T08:31:43;101446.25;;;15.59;nan
43814;BME280;29669;55.706;37.656;2023-05-09T08:34:12;101451.44;;;15.51;nan
43814;BME280;29669;55.706;37.656;2023-05-09T08:36:39;101445.06;;;15.53;nan
43814;BME280;29669;55.706;37.656;2023-05-09T08:39:07;101439.75;;;15.71;nan
43814;BME280;29669;55.706;37.656;2023-05-09T08:41:37;101432.63;;;15.81;nan
43814;BME280;29669;55.706;37.656;2023-05-09T08:44:06;101439.09;;;15.94;nan
43814;BME280;29669;55.706;37.656;2023-05-09T08:46:36;101432.44;;;16.08;nan
43814;BME280;29669;55.706;37.656;2023-05-09T08:51:36;101429.19;;;16.56;nan
43814;BME280;29669;55.706;37.656;2023-05-09T08:54:04;101415.72;;;16.59;nan
43814;BME280;29669;55.706;37.656;2023-05-09T08:56:33;101419.84;;;16.61;nan
43814;BME280;29669;55.706;37.656;2023-05-09T08:59:03;101420.75;;;16.44;nan
43814;BME280;29669;55.706;37.656;2023-05-09T09:04:06;101412.22;;;16.34;nan
43814;BME280;29669;55.706;37.656;2023-05-09T09:06:34;101417.47;;;16.42;nan
43814;BME280;29669;55.706;37.656;2023-05-09T09:09:05;101415.06;;;16.57;nan
43814;BME280;29669;55.706;37.656;2023-05-09T09:11:35;101409.00;;;16.56;nan
43814;BME280;29669;55.706;37.656;2023-05-09T09:14:23;101403.59;;;16.50;nan
43814;BME280;29669;55.706;37.656;2023-05-09T09:16:54;101401.16;;;16.48;nan
43814;BME280;29669;55.706;37.656;2023-05-09T09:19:28;101404.09;;;16.53;nan
43814;BME280;29669;55.706;37.656;2023-05-09T09:21:58;101391.94;;;16.44;nan
43814;BME280;29669;55.706;37.656;2023-05-09T09:24:28;101388.03;;;16.56;nan
43814;BME280;29669;55.706;37.656;2023-05-09T09:26:57;101395.28;;;16.70;nan
43814;BME280;29669;55.706;37.656;2023-05-09T09:29:24;101388.53;;;16.76;nan
43814;BME280;29669;55.706;37.656;2023-05-09T09:31:54;101387.22;;;16.96;nan
43814;BME280;29669;55.706;37.656;2023-05-09T09:34:22;101382.59;;;17.22;nan
43814;BME280;29669;55.706;37.656;2023-05-09T09:36:50;101387.00;;;17.46;nan
43814;BME280;29669;55.706;37.656;2023-05-09T09:39:18;101383.34;;;17.71;nan
43814;BME280;29669;55.706;37.656;2023-05-09T09:41:46;101374.03;;;17.99;nan
43814;BME280;29669;55.706;37.656;2023-05-09T09:44:16;101373.94;;;18.46;nan
43814;BME280;29669;55.706;37.656;2023-05-09T09:46:51;101369.66;;;18.90;nan
43814;BME280;29669;55.706;37.656;2023-05-09T09:49:23;101362.84;;;19.33;nan
43814;BME280;29669;55.706;37.656;2023-05-09T09:51:53;101371.28;;;19.28;nan
43814;BME280;29669;55.706;37.656;2023-05-09T09:54:21;101370.34;;;19.07;nan
43814;BME280;29669;55.706;37.656;2023-05-09T09:56:50;101368.59;;;18.99;nan
43814;BME280;29669;55.706;37.656;2023-05-09T09:59:22;101372.97;;;18.69;nan
43814;BME280;29669;55.706;37.656;2023-05-09T10:04:21;101363.66;;;18.28;nan
43814;BME280;29669;55.706;37.656;2023-05-09T10:07:04;101364.44;;;18.67;nan
43814;BME280;29669;55.706;37.656;2023-05-09T10:09:43;101354.09;;;19.03;nan
43814;BME280;29669;55.706;37.656;2023-05-09T10:12:12;101360.00;;;19.20;nan
43814;BME280;29669;55.706;37.656;2023-05-09T10:14:42;101363.66;;;19.19;nan
43814;BME280;29669;55.706;37.656;2023-05-09T10:17:13;101368.19;;;18.88;nan
43814;BME280;29669;55.706;37.656;2023-05-09T10:19:43;101354.88;;;18.66;nan
43814;BME280;29669;55.706;37.656;2023-05-09T10:22:14;101359.41;;;18.27;nan
43814;BME280;29669;55.706;37.656;2023-05-09T10:25:00;101351.25;;;17.92;nan
43814;BME280;29669;55.706;37.656;2023-05-09T10:27:30;101359.38;;;17.66;nan
43814;BME280;29669;55.706;37.656;2023-05-09T10:30:08;101362.75;;;17.52;nan
43814;BME280;29669;55.706;37.656;2023-05-09T10:35:12;101354.66;;;17.45;nan
43814;BME280;29669;55.706;37.656;2023-05-09T10:37:44;101349.59;;;17.52;nan
43814;BME280;29669;55.706;37.656;2023-05-09T10:40:12;101351.19;;;17.69;nan
43814;BME280;29669;55.706;37.656;2023-05-09T10:42:42;101352.09;;;17.84;nan
43814;BME280;29669;55.706;37.656;2023-05-09T10:45:11;101347.25;;;17.73;nan
43814;BME280;29669;55.706;37.656;2023-05-09T10:47:40;101342.13;;;17.71;nan
43814;BME280;29669;55.706;37.656;2023-05-09T10:50:12;101345.91;;;17.77;nan
43814;BME280;29669;55.706;37.656;2023-05-09T10:58:29;101332.94;;;18.06;nan
43814;BME280;29669;55.706;37.656;2023-05-09T11:01:01;101321.16;;;18.25;nan
43814;BME280;29669;55.706;37.656;2023-05-09T11:03:55;101320.63;;;18.29;nan
43814;BME280;29669;55.706;37.656;2023-05-09T11:17:05;101294.28;;;18.37;nan
43814;BME280;29669;55.706;37.656;2023-05-09T11:22:43;101284.03;;;18.50;nan
43814;BME280;29669;55.706;37.656;2023-05-09T11:25:12;101285.44;;;18.75;nan
43814;BME280;29669;55.706;37.656;2023-05-09T11:27:43;101281.22;;;19.04;nan
43814;BME280;29669;55.706;37.656;2023-05-09T11:30:16;101288.66;;;19.15;nan
43814;BME280;29669;55.706;37.656;2023-05-09T11:32:54;101277.75;;;19.18;nan
43814;BME280;29669;55.706;37.656;2023-05-09T11:35:25;101283.31;;;19.52;nan
43814;BME280;29669;55.706;37.656;2023-05-09T11:40:28;101274.75;;;20.00;nan
43814;BME280;29669;55.706;37.656;2023-05-09T11:42:57;101262.03;;;19.68;nan
43814;BME280;29669;55.706;37.656;2023-05-09T11:45:30;101269.94;;;19.10;nan
43814;BME280;29669;55.706;37.656;2023-05-09T11:47:58;101257.31;;;18.61;nan
43814;BME280;29669;55.706;37.656;2023-05-09T11:50:27;101266.31;;;18.44;nan
43814;BME280;29669;55.706;37.656;2023-05-09T11:52:55;101272.69;;;18.27;nan
43814;BME280;29669;55.706;37.656;2023-05-09T11:55:23;101255.03;;;18.13;nan
43814;BME280;29669;55.706;37.656;2023-05-09T11:57:57;101253.34;;;18.20;nan
43814;BME280;29669;55.706;37.656;2023-05-09T12:00:25;101247.44;;;18.41;nan
43814;BME280;29669;55.706;37.656;2023-05-09T12:02:53;101249.88;;;18.65;nan
43814;BME280;29669;55.706;37.656;2023-05-09T12:05:21;101241.44;;;18.99;nan
43814;BME280;29669;55.706;37.656;2023-05-09T12:07:49;101241.47;;;19.13;nan
43814;BME280;29669;55.706;37.656;2023-05-09T12:10:20;101235.13;;;19.37;nan
43814;BME280;29669;55.706;37.656;2023-05-09T12:12:50;101239.81;;;19.56;nan
43814;BME280;29669;55.706;37.656;2023-05-09T12:15:20;101233.34;;;19.58;nan
43814;BME280;29669;55.706;37.656;2023-05-09T12:18:02;101230.72;;;19.58;nan
43814;BME280;29669;55.706;37.656;2023-05-09T12:20:47;101224.50;;;19.87;nan
43814;BME280;29669;55.706;37.656;2023-05-09T12:23:19;101223.56;;;20.30;nan
43814;BME280;29669;55.706;37.656;2023-05-09T12:25:54;101221.34;;;20.61;nan
43814;BME280;29669;55.706;37.656;2023-05-09T12:28:22;101220.72;;;20.94;nan
43814;BME280;29669;55.706;37.656;2023-05-09T12:30:50;101219.81;;;21.08;nan
43814;BME280;29669;55.706;37.656;2023-05-09T12:33:19;101210.78;;;21.30;nan
43814;BME280;29669;55.706;37.656;2023-05-09T12:36:00;101208.53;;;21.94;nan
43814;BME280;29669;55.706;37.656;2023-05-09T12:38:32;101218.50;;;22.64;nan
43814;BME280;29669;55.706;37.656;2023-05-09T12:41:04;101207.72;;;23.35;nan
43814;BME280;29669;55.706;37.656;2023-05-09T12:43:34;101200.88;;;23.59;nan
43814;BME280;29669;55.706;37.656;2023-05-09T12:46:03;101194.44;;;22.85;nan
43814;BME280;29669;55.706;37.656;2023-05-09T12:48:36;101203.03;;;22.48;nan
43814;BME280;29669;55.706;37.656;2023-05-09T12:51:05;101203.66;;;22.36;nan
43814;BME280;29669;55.706;37.656;2023-05-09T12:53:39;101194.63;;;21.66;nan
43814;BME280;29669;55.706;37.656;2023-05-09T12:56:16;101188.41;;;20.85;nan
43814;BME280;29669;55.706;37.656;2023-05-09T13:01:22;101188.91;;;19.70;nan
43814;BME280;29669;55.706;37.656;2023-05-09T13:04:02;101185.00;;;19.30;nan
43814;BME280;29669;55.706;37.656;2023-05-09T13:06:30;101180.00;;;19.06;nan
43814;BME280;29669;55.706;37.656;2023-05-09T13:09:00;101183.38;;;18.86;nan
43814;BME280;29669;55.706;37.656;2023-05-09T13:11:29;101174.41;;;18.65;nan
43814;BME280;29669;55.706;37.656;2023-05-09T13:13:57;101176.84;;;18.82;nan
43814;BME280;29669;55.706;37.656;2023-05-09T13:18:53;101167.13;;;23.48;nan
43814;BME280;29669;55.706;37.656;2023-05-09T13:21:21;101164.59;;;25.60;nan
43814;BME280;29669;55.706;37.656;2023-05-09T13:23:48;101157.28;;;26.55;nan
43814;BME280;29669;55.706;37.656;2023-05-09T13:26:18;101149.66;;;27.10;nan
43814;BME280;29669;55.706;37.656;2023-05-09T13:28:46;101155.31;;;26.62;nan
43814;BME280;29669;55.706;37.656;2023-05-09T13:31:14;101150.78;;;25.81;nan
43814;BME280;29669;55.706;37.656;2023-05-09T13:33:41;101152.25;;;24.27;nan
43814;BME280;29669;55.706;37.656;2023-05-09T13:36:09;101145.53;;;22.94;nan
43814;BME280;29669;55.706;37.656;2023-05-09T13:38:37;101147.69;;;21.74;nan
43814;BME280;29669;55.706;37.656;2023-05-09T13:41:07;101146.34;;;20.84;nan
43814;BME280;29669;55.706;37.656;2023-05-09T13:43:36;101147.84;;;20.24;nan
43814;BME280;29669;55.706;37.656;2023-05-09T13:46:03;101138.00;;;19.91;nan
43814;BME280;29669;55.706;37.656;2023-05-09T13:48:32;101126.03;;;19.67;nan
43814;BME280;29669;55.706;37.656;2023-05-09T13:51:00;101139.31;;;19.59;nan
43814;BME280;29669;55.706;37.656;2023-05-09T13:53:27;101139.72;;;19.56;nan
43814;BME280;29669;55.706;37.656;2023-05-09T13:55:56;101135.31;;;19.63;nan
43814;BME280;29669;55.706;37.656;2023-05-09T13:58:23;101130.47;;;19.66;nan
43814;BME280;29669;55.706;37.656;2023-05-09T14:00:51;101134.56;;;19.69;nan
43814;BME280;29669;55.706;37.656;2023-05-09T14:03:19;101119.06;;;19.59;nan
43814;BME280;29669;55.706;37.656;2023-05-09T14:05:47;101127.78;;;19.39;nan
43814;BME280;29669;55.706;37.656;2023-05-09T14:08:15;101121.41;;;19.69;nan